Beloit, Kansas
Current Conditions -  °F | °C
As of 4:55 PM on Wednesday 22 Oct 2014 (Local Time) from KCNK Reporting Station
Overcast Overcast  
Wind Chill: 23°   Ceiling: 9500
Heat Index: 23°   Visibility: 10mi
Dew Point: 12°   Wind: 16mph
Humidity: 48%   Direction: 180°S
Pressure: 29.99"   Gusts: 25mph
Location:  39.46°N, 98.11°W
Report Text: KCNK 222155Z AUTO 18014G22KT 10SM BKN095 OVC110 23/12 A2999 RMK AO2 PK WND 18027/2100 SLP145 T02330117
Loading
Personal Weather Stations






























Interactive Weather Map
Tropical Storm Tracking
New forecast layout! Learn more

10-Day Weather Forecast

Advertisements
Track Severe Weather on mobile